Time;durP1;ratioP1;P1;durP2;ratioP2;P2;SDS_P1;SDS_P2;PMS_P1;PMS_P2;Temp;Humidity;BMP_temperature;BMP_pressure;BME280_temperature;BME280_humidity;BME280_pressure;Samples;Min_cycle;Max_cycle;Signal;HPM_P1;HPM_P2
2021/06/29 00:00:08;;;;;;;;;;;24.70;61.90;;;;;;5006152;28;19964;-64
2021/06/29 00:02:33;;;;;;;;;;;24.70;61.90;;;;;;4966923;28;19972;-64
2021/06/29 00:04:59;;;;;;;;;;;24.70;61.90;;;;;;4998823;28;20000;-65
2021/06/29 00:07:24;;;;;;;;;;;24.70;61.90;;;;;;4998217;28;20644;-64
2021/06/29 00:09:50;;;;;;;;;;;24.70;61.90;;;;;;5014401;28;19918;-64
2021/06/29 00:12:15;;;;;;;;;;;24.70;61.80;;;;;;5001957;28;19952;-64
2021/06/29 00:14:41;;;;;;;;;;;24.70;61.90;;;;;;5010895;28;19917;-64
2021/06/29 00:17:07;;;;;;;;;;;24.60;62.00;;;;;;4974285;28;19921;-65
2021/06/29 00:19:32;;;;;;;;;;;24.60;62.00;;;;;;5017268;28;19929;-65
2021/06/29 00:21:58;;;;;;;;;;;24.70;61.90;;;;;;4996042;28;19929;-65
2021/06/29 00:24:23;;;;;;;;;;;24.70;61.90;;;;;;5015390;28;19921;-65
2021/06/29 00:26:49;;;;;;;;;;;24.70;61.90;;;;;;5010518;28;19973;-64
2021/06/29 00:29:14;;;;;;;;;;;24.60;61.90;;;;;;5012102;28;19917;-64
2021/06/29 00:31:40;;;;;;;;;;;24.60;62.00;;;;;;5008166;28;20772;-64
2021/06/29 00:34:06;;;;;;;;;;;24.60;62.00;;;;;;5009200;28;19921;-63
2021/06/29 00:36:31;;;;;;;;;;;24.60;62.10;;;;;;5004363;28;20021;-65
2021/06/29 00:38:57;;;;;;;;;;;24.50;62.20;;;;;;5014524;28;21588;-64
2021/06/29 00:41:22;;;;;;;;;;;24.50;62.20;;;;;;4999766;28;20318;-64
2021/06/29 00:43:48;;;;;;;;;;;24.50;62.20;;;;;;5015520;28;19921;-64
2021/06/29 00:46:14;;;;;;;;;;;24.50;62.20;;;;;;5000553;28;20016;-64
2021/06/29 00:48:39;;;;;;;;;;;24.50;62.20;;;;;;4997564;28;19949;-64
2021/06/29 00:51:05;;;;;;;;;;;24.50;62.20;;;;;;5009334;23;20478;-66
2021/06/29 00:53:30;;;;;;;;;;;24.50;62.20;;;;;;5008382;28;19917;-66
2021/06/29 00:55:56;;;;;;;;;;;24.50;62.20;;;;;;5011905;28;19979;-67
2021/06/29 00:58:21;;;;;;;;;;;24.50;62.20;;;;;;4997136;28;19949;-66
2021/06/29 01:00:47;;;;;;;;;;;24.40;62.20;;;;;;5015495;28;19925;-66
2021/06/29 01:03:12;;;;;;;;;;;24.50;62.20;;;;;;5020048;28;19917;-66
2021/06/29 01:05:38;;;;;;;;;;;24.50;62.00;;;;;;5012143;28;19918;-67
2021/06/29 01:08:04;;;;;;;;;;;24.50;61.70;;;;;;5011874;28;19909;-66
2021/06/29 01:10:29;;;;;;;;;;;24.50;61.90;;;;;;5021327;28;19924;-66
2021/06/29 01:12:55;;;;;;;;;;;24.50;61.80;;;;;;5007497;28;19925;-66
2021/06/29 01:15:23;;;;;;;;;;;24.60;61.70;;;;;;5035678;28;20662;-66
2021/06/29 01:17:50;;;;;;;;;;;24.60;61.60;;;;;;5022355;28;19995;-66
2021/06/29 01:20:18;;;;;;;;;;;24.60;61.70;;;;;;5034727;28;19917;-66
2021/06/29 01:22:44;;;;;;;;;;;24.60;61.50;;;;;;5012420;28;19914;-67
2021/06/29 01:25:11;;;;;;;;;;;24.60;61.40;;;;;;5015009;28;20292;-66
2021/06/29 01:32:37;;;;;;;;;;;24.70;61.30;;;;;;5018634;28;20011;-66
2021/06/29 01:35:05;;;;;;;;;;;24.70;61.40;;;;;;5016665;28;19937;-66
2021/06/29 01:37:31;;;;;;;;;;;24.70;61.00;;;;;;5017393;28;19971;-66
2021/06/29 01:39:59;;;;;;;;;;;24.70;60.70;;;;;;5000277;28;19921;-65
2021/06/29 01:42:25;;;;;;;;;;;24.50;60.90;;;;;;4998718;28;20023;-66
2021/06/29 01:44:51;;;;;;;;;;;24.60;61.20;;;;;;5020995;28;19945;-65
2021/06/29 01:47:25;;;;;;;;;;;24.50;61.20;;;;;;5001379;28;20631;-67
2021/06/29 01:49:50;;;;;;;;;;;24.50;61.10;;;;;;5024633;28;19952;-66
2021/06/29 01:52:16;;;;;;;;;;;24.50;61.00;;;;;;5015466;28;19968;-66
2021/06/29 01:54:42;;;;;;;;;;;24.50;61.10;;;;;;5015758;28;19939;-66
2021/06/29 01:57:09;;;;;;;;;;;24.50;61.10;;;;;;5009947;28;19917;-67
2021/06/29 01:59:35;;;;;;;;;;;24.50;61.10;;;;;;5024290;28;19922;-65
2021/06/29 02:02:00;;;;;;;;;;;24.40;61.30;;;;;;5010130;28;20100;-66
2021/06/29 02:04:25;;;;;;;;;;;24.50;61.40;;;;;;5007955;28;20304;-66
2021/06/29 02:06:51;;;;;;;;;;;24.50;61.40;;;;;;5025577;28;19940;-66
2021/06/29 02:09:16;;;;;;;;;;;24.50;61.40;;;;;;5011709;28;19975;-66
2021/06/29 02:11:42;;;;;;;;;;;24.50;61.60;;;;;;5008451;28;19982;-66
2021/06/29 02:14:07;;;;;;;;;;;24.50;61.40;;;;;;5016431;28;19993;-66
2021/06/29 02:16:33;;;;;;;;;;;24.50;61.40;;;;;;4992752;28;19925;-66
2021/06/29 02:18:58;;;;;;;;;;;24.50;61.50;;;;;;5016512;28;20007;-67
2021/06/29 02:21:24;;;;;;;;;;;24.40;61.60;;;;;;5016758;28;20693;-66
2021/06/29 02:23:49;;;;;;;;;;;24.50;61.40;;;;;;5026680;28;19913;-66
2021/06/29 02:26:14;;;;;;;;;;;24.50;61.40;;;;;;5012318;28;19924;-66
2021/06/29 02:28:40;;;;;;;;;;;24.50;61.60;;;;;;5018230;28;20415;-67
2021/06/29 02:31:05;;;;;;;;;;;24.50;61.50;;;;;;5022171;28;20798;-66
2021/06/29 02:33:31;;;;;;;;;;;24.50;61.50;;;;;;5000354;28;19957;-66
2021/06/29 02:35:56;;;;;;;;;;;24.40;61.70;;;;;;4999579;28;19921;-66
2021/06/29 02:38:26;;;;;;;;;;;24.40;61.70;;;;;;5018761;28;20338;-66
2021/06/29 02:40:51;;;;;;;;;;;24.50;61.50;;;;;;5009966;28;19922;-66
2021/06/29 02:43:16;;;;;;;;;;;24.50;61.50;;;;;;5018002;28;19967;-67
2021/06/29 02:45:42;;;;;;;;;;;24.50;61.40;;;;;;4982905;28;19921;-66
2021/06/29 02:48:08;;;;;;;;;;;24.50;61.50;;;;;;5008267;28;20028;-66
2021/06/29 02:50:34;;;;;;;;;;;24.50;61.60;;;;;;4990970;28;20000;-66
2021/06/29 02:52:59;;;;;;;;;;;24.50;61.50;;;;;;4998137;28;20025;-65
2021/06/29 02:55:25;;;;;;;;;;;24.50;61.60;;;;;;5014852;28;19936;-67
2021/06/29 02:57:50;;;;;;;;;;;24.60;61.50;;;;;;5006034;28;20296;-66
2021/06/29 03:00:17;;;;;;;;;;;24.50;61.60;;;;;;5013494;28;19917;-66
2021/06/29 03:02:42;;;;;;;;;;;24.50;61.70;;;;;;5014515;28;19916;-66
2021/06/29 03:05:08;;;;;;;;;;;24.50;61.80;;;;;;5007245;28;19913;-65
2021/06/29 03:07:34;;;;;;;;;;;24.50;61.80;;;;;;5008009;28;19921;-65
2021/06/29 03:09:59;;;;;;;;;;;24.50;61.60;;;;;;5016723;28;19939;-66
2021/06/29 03:12:25;;;;;;;;;;;24.50;61.90;;;;;;5008723;28;20430;-66
2021/06/29 03:14:55;;;;;;;;;;;24.50;61.70;;;;;;5021658;28;19921;-66
2021/06/29 03:17:20;;;;;;;;;;;24.50;61.60;;;;;;5008507;28;20481;-67
2021/06/29 03:19:46;;;;;;;;;;;24.50;61.40;;;;;;5009020;28;19925;-66
2021/06/29 03:22:11;;;;;;;;;;;24.40;61.20;;;;;;5018358;28;20259;-66
2021/06/29 03:24:37;;;;;;;;;;;24.40;61.40;;;;;;5026606;28;19960;-66
2021/06/29 03:27:03;;;;;;;;;;;24.50;61.60;;;;;;5014517;28;19993;-66
2021/06/29 03:29:28;;;;;;;;;;;24.50;61.70;;;;;;5000180;28;20437;-66
2021/06/29 03:31:54;;;;;;;;;;;24.50;61.70;;;;;;5014956;28;19921;-67
2021/06/29 03:34:19;;;;;;;;;;;24.50;61.50;;;;;;5008080;28;20346;-67
2021/06/29 03:36:44;;;;;;;;;;;24.40;61.20;;;;;;5007126;28;19924;-67
2021/06/29 03:39:11;;;;;;;;;;;24.40;61.30;;;;;;4987512;28;19971;-67
2021/06/29 03:41:36;;;;;;;;;;;24.30;61.00;;;;;;5007515;28;19992;-67
2021/06/29 03:44:02;;;;;;;;;;;24.40;61.20;;;;;;4997270;28;20008;-67
2021/06/29 03:46:27;;;;;;;;;;;24.40;61.20;;;;;;4987019;28;20686;-67
2021/06/29 03:48:53;;;;;;;;;;;24.40;61.20;;;;;;5008620;28;19913;-67
2021/06/29 03:51:18;;;;;;;;;;;24.40;61.10;;;;;;5007817;28;19921;-67
2021/06/29 03:53:45;;;;;;;;;;;24.40;61.20;;;;;;5012145;28;20514;-67
2021/06/29 03:56:31;;;;;;;;;;;24.30;61.20;;;;;;5024853;28;19917;-66
2021/06/29 03:59:00;;;;;;;;;;;24.40;61.50;;;;;;5000223;28;19960;-67
2021/06/29 04:01:25;;;;;;;;;;;24.40;61.60;;;;;;5011595;28;19913;-67
2021/06/29 04:03:56;;;;;;;;;;;24.40;61.70;;;;;;5018981;28;20595;-67
2021/06/29 04:06:22;;;;;;;;;;;24.40;61.70;;;;;;5006821;28;20535;-66
2021/06/29 04:08:48;;;;;;;;;;;24.40;61.90;;;;;;5001547;28;20003;-67
2021/06/29 04:11:13;;;;;;;;;;;24.40;61.80;;;;;;5005127;28;19917;-67
2021/06/29 04:13:39;;;;;;;;;;;24.40;61.80;;;;;;5018885;28;20479;-67
2021/06/29 04:16:04;;;;;;;;;;;24.40;61.70;;;;;;5016250;28;19944;-67
2021/06/29 04:18:30;;;;;;;;;;;24.40;61.70;;;;;;5004830;28;20004;-67
2021/06/29 04:20:55;;;;;;;;;;;24.40;61.80;;;;;;5006678;28;19924;-67
2021/06/29 04:23:20;;;;;;;;;;;24.20;61.60;;;;;;5010843;28;19967;-67
2021/06/29 04:25:46;;;;;;;;;;;24.10;62.60;;;;;;5024563;28;20173;-67
2021/06/29 04:28:11;;;;;;;;;;;24.20;62.20;;;;;;5018535;28;20308;-67
2021/06/29 04:30:37;;;;;;;;;;;24.20;62.00;;;;;;4987206;28;19944;-67
2021/06/29 04:33:02;;;;;;;;;;;24.20;62.20;;;;;;5001324;28;19929;-68
2021/06/29 04:35:29;;;;;;;;;;;24.10;62.40;;;;;;4986645;28;19975;-67
2021/06/29 04:37:55;;;;;;;;;;;24.10;62.80;;;;;;5012080;28;19956;-67
2021/06/29 04:40:20;;;;;;;;;;;24.10;63.10;;;;;;5009649;28;19948;-67
2021/06/29 04:42:46;;;;;;;;;;;24.10;63.10;;;;;;5022704;28;19917;-67
2021/06/29 04:45:12;;;;;;;;;;;24.10;63.20;;;;;;5004119;28;19979;-67
2021/06/29 04:47:46;;;;;;;;;;;24.10;63.20;;;;;;5018809;28;20336;-68
2021/06/29 04:50:12;;;;;;;;;;;24.10;63.30;;;;;;5016534;28;20020;-68
2021/06/29 04:52:37;;;;;;;;;;;24.10;63.40;;;;;;5002238;28;20548;-69
2021/06/29 04:55:03;;;;;;;;;;;24.20;63.80;;;;;;5020567;28;19953;-66
2021/06/29 04:57:29;;;;;;;;;;;24.20;63.90;;;;;;5019308;28;19921;-65
2021/06/29 04:59:54;;;;;;;;;;;24.10;63.90;;;;;;5010916;28;19921;-66
2021/06/29 05:02:20;;;;;;;;;;;24.00;63.70;;;;;;5014705;28;19940;-67
2021/06/29 05:04:45;;;;;;;;;;;24.10;63.90;;;;;;5010814;28;19918;-66
2021/06/29 05:07:11;;;;;;;;;;;24.10;63.50;;;;;;5009876;28;19920;-66
2021/06/29 05:09:36;;;;;;;;;;;24.20;63.60;;;;;;5009233;28;20390;-66
2021/06/29 05:12:01;;;;;;;;;;;24.30;63.30;;;;;;5004266;28;19924;-66
2021/06/29 05:14:27;;;;;;;;;;;24.40;63.20;;;;;;5013353;28;20481;-66
2021/06/29 05:16:52;;;;;;;;;;;24.40;63.40;;;;;;5021020;28;20296;-66
2021/06/29 05:19:18;;;;;;;;;;;24.40;63.20;;;;;;5027272;28;19943;-66
2021/06/29 05:21:43;;;;;;;;;;;24.40;63.20;;;;;;5009109;28;20395;-67
2021/06/29 05:24:09;;;;;;;;;;;24.40;63.10;;;;;;5001168;28;19914;-67
2021/06/29 05:26:34;;;;;;;;;;;24.40;63.40;;;;;;4996327;28;19917;-67
2021/06/29 05:29:01;;;;;;;;;;;24.40;63.60;;;;;;5013901;28;20367;-67
2021/06/29 05:31:26;;;;;;;;;;;24.40;63.60;;;;;;5021827;28;20342;-67
2021/06/29 05:33:51;;;;;;;;;;;24.40;63.40;;;;;;4993374;28;19917;-68
2021/06/29 05:36:17;;;;;;;;;;;24.50;63.30;;;;;;5020063;28;19937;-68
2021/06/29 05:38:42;;;;;;;;;;;24.40;63.30;;;;;;5018550;28;19910;-68
2021/06/29 05:41:08;;;;;;;;;;;24.40;63.40;;;;;;5010520;28;19928;-68
2021/06/29 05:43:33;;;;;;;;;;;24.40;64.20;;;;;;5013965;28;19913;-68
2021/06/29 05:45:59;;;;;;;;;;;24.40;64.80;;;;;;4999809;28;20015;-67
2021/06/29 05:48:28;;;;;;;;;;;24.40;64.50;;;;;;5021086;28;20402;-68
2021/06/29 05:50:53;;;;;;;;;;;24.40;64.30;;;;;;4995401;28;19943;-67
2021/06/29 05:53:18;;;;;;;;;;;24.40;63.60;;;;;;4998949;28;20377;-66
2021/06/29 05:55:44;;;;;;;;;;;24.30;63.80;;;;;;4998064;28;19979;-67
2021/06/29 05:58:09;;;;;;;;;;;24.30;63.90;;;;;;5016433;28;19949;-68
2021/06/29 06:00:35;;;;;;;;;;;24.40;63.90;;;;;;5021816;28;20007;-68
2021/06/29 06:03:00;;;;;;;;;;;24.40;63.60;;;;;;5020211;28;19956;-68
2021/06/29 06:05:26;;;;;;;;;;;24.40;63.60;;;;;;5015414;28;19913;-68
2021/06/29 06:07:54;;;;;;;;;;;24.40;63.70;;;;;;5012867;28;19968;-67
2021/06/29 06:10:20;;;;;;;;;;;24.40;64.00;;;;;;5025497;28;20670;-67
2021/06/29 06:12:45;;;;;;;;;;;24.30;63.90;;;;;;5006716;28;19920;-67
2021/06/29 06:15:10;;;;;;;;;;;24.30;64.10;;;;;;5019402;28;20339;-67
2021/06/29 06:17:37;;;;;;;;;;;24.20;64.10;;;;;;4997471;28;20009;-67
2021/06/29 06:20:04;;;;;;;;;;;24.10;64.10;;;;;;5012512;28;20465;-68
2021/06/29 06:22:30;;;;;;;;;;;24.10;64.10;;;;;;5020845;28;19913;-68
2021/06/29 06:24:55;;;;;;;;;;;24.10;64.00;;;;;;5005081;28;19935;-68
2021/06/29 06:27:21;;;;;;;;;;;24.10;64.30;;;;;;5026027;28;19913;-68
2021/06/29 06:29:46;;;;;;;;;;;24.10;64.40;;;;;;5000105;28;19913;-67
2021/06/29 06:32:12;;;;;;;;;;;24.10;64.20;;;;;;5008398;28;20376;-67
2021/06/29 06:34:38;;;;;;;;;;;24.10;64.30;;;;;;5025912;28;19909;-67
2021/06/29 06:37:03;;;;;;;;;;;24.10;64.30;;;;;;4999757;28;19971;-67
2021/06/29 06:39:29;;;;;;;;;;;24.10;64.20;;;;;;5003499;28;20654;-66
2021/06/29 06:41:54;;;;;;;;;;;24.10;64.40;;;;;;5022163;28;19913;-67
2021/06/29 06:44:20;;;;;;;;;;;24.10;64.20;;;;;;5014480;28;19910;-67
2021/06/29 06:46:45;;;;;;;;;;;24.10;64.30;;;;;;5023180;28;19909;-67
2021/06/29 06:49:10;;;;;;;;;;;24.00;64.20;;;;;;4999936;28;19913;-67
2021/06/29 06:51:36;;;;;;;;;;;24.00;64.10;;;;;;5032721;22;19932;-64
2021/06/29 06:54:01;;;;;;;;;;;24.00;64.30;;;;;;5020599;28;19963;-63
2021/06/29 06:56:27;;;;;;;;;;;24.00;64.40;;;;;;5033018;28;19913;-64
2021/06/29 06:58:53;;;;;;;;;;;24.00;64.50;;;;;;5037610;28;19916;-64
2021/06/29 07:01:18;;;;;;;;;;;24.00;64.40;;;;;;5035737;28;19927;-65
2021/06/29 07:03:44;;;;;;;;;;;24.00;64.10;;;;;;5035783;28;19920;-65
2021/06/29 07:06:11;;;;;;;;;;;23.90;64.20;;;;;;5019008;28;20284;-64
2021/06/29 07:08:37;;;;;;;;;;;23.90;64.20;;;;;;5036670;28;19913;-63
2021/06/29 07:11:02;;;;;;;;;;;23.90;64.10;;;;;;5019027;28;19932;-64
2021/06/29 07:13:28;;;;;;;;;;;24.00;64.10;;;;;;5036726;28;19917;-64
2021/06/29 07:15:53;;;;;;;;;;;24.00;64.30;;;;;;5018338;28;19916;-63
2021/06/29 07:18:19;;;;;;;;;;;24.10;64.20;;;;;;5037281;28;20003;-65
2021/06/29 07:20:44;;;;;;;;;;;24.10;64.20;;;;;;5017398;28;20417;-64
2021/06/29 07:23:10;;;;;;;;;;;24.10;64.00;;;;;;4995972;28;19971;-64
2021/06/29 07:25:35;;;;;;;;;;;24.10;63.80;;;;;;5019753;28;19982;-65
2021/06/29 07:28:01;;;;;;;;;;;24.10;63.70;;;;;;4996429;28;19917;-65
2021/06/29 07:30:27;;;;;;;;;;;24.10;63.60;;;;;;5023367;28;19931;-65
2021/06/29 07:32:58;;;;;;;;;;;24.20;63.60;;;;;;5016602;28;20385;-65
2021/06/29 07:35:23;;;;;;;;;;;24.10;63.40;;;;;;5021360;28;19940;-63
2021/06/29 07:37:49;;;;;;;;;;;24.20;63.50;;;;;;5023947;28;19913;-65
2021/06/29 07:40:14;;;;;;;;;;;24.20;63.40;;;;;;5020169;28;19927;-64
2021/06/29 07:42:40;;;;;;;;;;;24.20;63.40;;;;;;5024738;28;19913;-64
2021/06/29 07:45:09;;;;;;;;;;;24.20;63.50;;;;;;5001023;28;19917;-64
2021/06/29 07:47:34;;;;;;;;;;;24.20;63.50;;;;;;4994769;28;19921;-64
2021/06/29 07:49:59;;;;;;;;;;;24.20;63.40;;;;;;5000116;28;20786;-64
2021/06/29 07:52:25;;;;;;;;;;;24.20;63.20;;;;;;4980322;28;19980;-65
2021/06/29 07:54:50;;;;;;;;;;;24.20;63.30;;;;;;5011304;28;20366;-65
2021/06/29 07:57:16;;;;;;;;;;;24.20;63.40;;;;;;5010016;28;19940;-65
2021/06/29 07:59:41;;;;;;;;;;;24.20;63.30;;;;;;4996682;28;20012;-65
2021/06/29 08:02:07;;;;;;;;;;;24.20;63.80;;;;;;5000197;28;19914;-65
2021/06/29 08:04:32;;;;;;;;;;;24.30;63.00;;;;;;5013459;28;20309;-64
2021/06/29 08:06:58;;;;;;;;;;;24.30;63.00;;;;;;5007455;28;19913;-65
2021/06/29 08:09:23;;;;;;;;;;;24.30;62.80;;;;;;5006522;28;19917;-65
2021/06/29 08:11:49;;;;;;;;;;;24.30;62.70;;;;;;4995720;28;19913;-65
2021/06/29 08:14:14;;;;;;;;;;;24.30;63.30;;;;;;5013866;28;20293;-64
2021/06/29 08:16:43;;;;;;;;;;;24.30;62.70;;;;;;5007355;28;19924;-64
2021/06/29 08:19:08;;;;;;;;;;;24.30;62.60;;;;;;5007546;28;20319;-64
2021/06/29 08:21:34;;;;;;;;;;;24.30;62.60;;;;;;5008720;28;20008;-64
2021/06/29 08:23:59;;;;;;;;;;;24.30;62.70;;;;;;5000369;28;20573;-64
2021/06/29 08:26:25;;;;;;;;;;;24.40;62.70;;;;;;5016043;28;20146;-64
2021/06/29 08:28:50;;;;;;;;;;;24.30;62.60;;;;;;5009716;28;19917;-65
2021/06/29 08:31:19;;;;;;;;;;;24.30;62.50;;;;;;5002554;28;19967;-64
2021/06/29 08:33:45;;;;;;;;;;;24.40;62.70;;;;;;5015248;28;19917;-65
2021/06/29 08:36:10;;;;;;;;;;;24.40;62.60;;;;;;5011262;28;20371;-64
2021/06/29 08:38:36;;;;;;;;;;;24.40;62.60;;;;;;5004875;28;19925;-65
2021/06/29 08:41:01;;;;;;;;;;;24.40;62.50;;;;;;5012435;28;20283;-64
2021/06/29 08:43:27;;;;;;;;;;;24.40;62.50;;;;;;5010062;28;20016;-64
2021/06/29 08:45:53;;;;;;;;;;;24.40;62.60;;;;;;5009279;28;19914;-64
2021/06/29 08:48:19;;;;;;;;;;;24.40;62.20;;;;;;5009342;28;19921;-64
2021/06/29 08:50:44;;;;;;;;;;;24.40;62.10;;;;;;5013480;28;19914;-65
2021/06/29 08:53:10;;;;;;;;;;;24.40;62.00;;;;;;5010439;28;19925;-64
2021/06/29 08:55:40;;;;;;;;;;;24.40;61.90;;;;;;4998880;28;19918;-64
2021/06/29 08:58:06;;;;;;;;;;;24.40;62.00;;;;;;5008653;28;19920;-64
2021/06/29 09:00:31;;;;;;;;;;;24.40;62.10;;;;;;5002655;28;19917;-64
2021/06/29 09:02:57;;;;;;;;;;;24.40;62.30;;;;;;5011046;28;19971;-64
2021/06/29 09:05:23;;;;;;;;;;;24.40;62.40;;;;;;4992840;28;19924;-64
2021/06/29 09:08:07;;;;;;;;;;;24.40;62.50;;;;;;5006509;28;20608;-65
2021/06/29 09:10:34;;;;;;;;;;;24.40;62.50;;;;;;5014859;28;19960;-65
2021/06/29 09:12:59;;;;;;;;;;;24.40;62.40;;;;;;4997209;28;20372;-64
2021/06/29 09:15:35;;;;;;;;;;;24.40;62.30;;;;;;5001613;28;20192;-65
2021/06/29 09:18:06;;;;;;;;;;;24.40;62.00;;;;;;5017103;28;20009;-64
2021/06/29 09:20:34;;;;;;;;;;;24.40;62.00;;;;;;5013388;28;19917;-64
2021/06/29 09:23:09;;;;;;;;;;;24.40;62.00;;;;;;4997525;28;19913;-64
2021/06/29 09:25:34;;;;;;;;;;;24.40;62.20;;;;;;5004109;28;19984;-65
2021/06/29 09:28:00;;;;;;;;;;;24.40;62.20;;;;;;5007666;28;19917;-64
2021/06/29 09:30:58;;;;;;;;;;;24.40;62.10;;;;;;5021100;28;19914;-65
2021/06/29 09:33:26;;;;;;;;;;;24.40;62.30;;;;;;4997808;28;19913;-65
2021/06/29 09:35:54;;;;;;;;;;;24.40;62.60;;;;;;5020084;28;19924;-65
2021/06/29 09:38:22;;;;;;;;;;;24.40;62.60;;;;;;5021596;28;20024;-65
2021/06/29 09:40:53;;;;;;;;;;;24.30;62.50;;;;;;5011725;28;19918;-64
2021/06/29 09:43:19;;;;;;;;;;;24.40;62.70;;;;;;5005703;28;19913;-64
2021/06/29 09:45:45;;;;;;;;;;;24.40;62.70;;;;;;5021074;28;19920;-64
2021/06/29 09:48:11;;;;;;;;;;;24.40;62.80;;;;;;5036076;28;19913;-64
2021/06/29 09:50:38;;;;;;;;;;;24.40;62.80;;;;;;5022130;28;20092;-65
2021/06/29 09:53:13;;;;;;;;;;;24.40;62.60;;;;;;5013796;28;20625;-64
2021/06/29 09:55:43;;;;;;;;;;;24.40;62.60;;;;;;5001547;28;20009;-62
2021/06/29 09:58:09;;;;;;;;;;;24.40;62.20;;;;;;5014156;28;19935;-65
2021/06/29 10:00:44;;;;;;;;;;;24.40;62.20;;;;;;5012733;28;19917;-64
2021/06/29 10:03:15;;;;;;;;;;;24.40;62.10;;;;;;5000869;28;19920;-65
2021/06/29 10:05:41;;;;;;;;;;;24.50;62.70;;;;;;5030614;28;20009;-65
2021/06/29 10:08:07;;;;;;;;;;;24.50;62.70;;;;;;5041283;28;20373;-64
2021/06/29 10:10:32;;;;;;;;;;;24.40;62.60;;;;;;5025462;28;19920;-64
2021/06/29 10:13:14;;;;;;;;;;;24.40;62.90;;;;;;5038133;28;19913;-64
2021/06/29 10:15:40;;;;;;;;;;;24.40;62.30;;;;;;5026977;28;20324;-64
2021/06/29 10:18:05;;;;;;;;;;;24.40;62.30;;;;;;5014848;28;19920;-64
2021/06/29 10:20:47;;;;;;;;;;;24.50;62.20;;;;;;5039016;28;19923;-65
2021/06/29 10:23:13;;;;;;;;;;;24.50;62.20;;;;;;5014531;28;19917;-66
2021/06/29 10:25:39;;;;;;;;;;;24.50;62.20;;;;;;5002592;28;19913;-63
2021/06/29 10:28:04;;;;;;;;;;;24.50;62.20;;;;;;5005307;28;20258;-64
2021/06/29 10:30:30;;;;;;;;;;;24.50;62.20;;;;;;5039221;28;19928;-64
2021/06/29 10:32:55;;;;;;;;;;;24.50;62.20;;;;;;5036491;28;20325;-63
2021/06/29 10:35:21;;;;;;;;;;;24.50;62.20;;;;;;5002157;28;20165;-65
2021/06/29 10:37:46;;;;;;;;;;;24.50;62.30;;;;;;5036152;28;19920;-64
2021/06/29 10:40:12;;;;;;;;;;;24.50;62.50;;;;;;5021215;28;19917;-65
2021/06/29 10:42:41;;;;;;;;;;;24.40;62.40;;;;;;5017380;28;20500;-65
2021/06/29 10:45:13;;;;;;;;;;;24.40;62.20;;;;;;5016189;28;19913;-64
2021/06/29 10:47:39;;;;;;;;;;;24.50;62.20;;;;;;5028763;28;19920;-65
2021/06/29 10:50:07;;;;;;;;;;;24.50;62.20;;;;;;5024261;28;19913;-65
2021/06/29 10:52:37;;;;;;;;;;;24.50;62.20;;;;;;5008111;28;20441;-64
2021/06/29 10:55:03;;;;;;;;;;;24.50;62.20;;;;;;5034632;28;19917;-64
2021/06/29 10:57:39;;;;;;;;;;;24.50;62.20;;;;;;5024828;28;19920;-64
2021/06/29 11:00:16;;;;;;;;;;;24.50;62.10;;;;;;5026658;28;20390;-65
2021/06/29 11:02:57;;;;;;;;;;;24.50;62.10;;;;;;5024911;28;19940;-64
2021/06/29 11:05:23;;;;;;;;;;;24.50;62.20;;;;;;5012557;28;19933;-65
2021/06/29 11:07:49;;;;;;;;;;;24.50;62.00;;;;;;5032938;28;20295;-64
2021/06/29 11:10:28;;;;;;;;;;;24.50;62.00;;;;;;5037274;28;19921;-64
2021/06/29 11:12:54;;;;;;;;;;;24.50;62.10;;;;;;5020924;28;20423;-65
2021/06/29 11:15:38;;;;;;;;;;;24.50;62.00;;;;;;5005259;28;19913;-64
2021/06/29 11:18:04;;;;;;;;;;;24.50;62.10;;;;;;5026039;28;20702;-65
2021/06/29 11:20:37;;;;;;;;;;;24.50;62.00;;;;;;5022135;28;19925;-64
2021/06/29 11:23:04;;;;;;;;;;;24.50;62.00;;;;;;5019547;28;19988;-64
2021/06/29 11:25:34;;;;;;;;;;;24.50;62.00;;;;;;5025395;28;19916;-64
2021/06/29 11:28:00;;;;;;;;;;;24.50;62.10;;;;;;5037118;28;19913;-65
2021/06/29 11:30:44;;;;;;;;;;;24.50;62.00;;;;;;5031717;28;20698;-64
2021/06/29 11:33:36;;;;;;;;;;;24.50;62.00;;;;;;5016021;28;19921;-65
2021/06/29 11:36:02;;;;;;;;;;;24.50;62.00;;;;;;5007187;28;19913;-65
2021/06/29 11:38:40;;;;;;;;;;;24.50;62.10;;;;;;4981586;28;20335;-64
2021/06/29 11:41:24;;;;;;;;;;;24.50;62.00;;;;;;5018052;28;19921;-64
2021/06/29 11:43:50;;;;;;;;;;;24.50;62.00;;;;;;5029548;28;19951;-65
2021/06/29 11:46:34;;;;;;;;;;;24.50;62.00;;;;;;5002555;28;20015;-64
2021/06/29 11:49:06;;;;;;;;;;;24.50;62.10;;;;;;5014904;28;19917;-64
2021/06/29 11:51:50;;;;;;;;;;;24.50;62.00;;;;;;5005642;28;20343;-65
2021/06/29 11:54:28;;;;;;;;;;;24.50;62.00;;;;;;5020116;28;20295;-65
2021/06/29 11:56:55;;;;;;;;;;;24.50;62.00;;;;;;5005426;28;20204;-65
2021/06/29 11:59:27;;;;;;;;;;;24.50;62.20;;;;;;5014275;28;20010;-64
2021/06/29 12:02:05;;;;;;;;;;;24.50;62.20;;;;;;5013343;28;19928;-64
2021/06/29 12:04:31;;;;;;;;;;;24.50;62.20;;;;;;4987905;28;19925;-64
2021/06/29 12:06:58;;;;;;;;;;;24.50;62.80;;;;;;5004480;28;19922;-63
2021/06/29 12:09:30;;;;;;;;;;;24.50;62.10;;;;;;5016771;28;19917;-64
2021/06/29 12:12:14;;;;;;;;;;;24.50;62.10;;;;;;5003136;28;19984;-64
2021/06/29 12:14:39;;;;;;;;;;;24.50;62.10;;;;;;5020461;28;19917;-64
2021/06/29 12:17:05;;;;;;;;;;;24.50;62.00;;;;;;5004730;28;19917;-64
2021/06/29 12:19:30;;;;;;;;;;;24.50;62.00;;;;;;5025987;28;19955;-64
2021/06/29 12:21:56;;;;;;;;;;;24.50;62.10;;;;;;5000267;28;20655;-63
2021/06/29 12:24:21;;;;;;;;;;;24.50;62.20;;;;;;5019096;28;19917;-64
2021/06/29 12:26:47;;;;;;;;;;;24.50;62.20;;;;;;5008048;28;20464;-64
2021/06/29 12:29:12;;;;;;;;;;;24.50;62.20;;;;;;5022641;28;19960;-63
2021/06/29 12:31:38;;;;;;;;;;;24.50;62.20;;;;;;5020736;28;19917;-63
2021/06/29 12:34:03;;;;;;;;;;;24.50;62.10;;;;;;5021279;28;19913;-64
2021/06/29 12:36:29;;;;;;;;;;;24.50;62.10;;;;;;5022337;28;20177;-64
2021/06/29 12:38:58;;;;;;;;;;;24.50;62.70;;;;;;5014287;28;19917;-61
2021/06/29 12:41:27;;;;;;;;;;;24.50;62.20;;;;;;5003130;28;20321;-63
2021/06/29 12:43:53;;;;;;;;;;;24.50;62.20;;;;;;5018724;28;20002;-63
2021/06/29 12:46:18;;;;;;;;;;;24.50;62.50;;;;;;5017878;28;19917;-63
2021/06/29 12:49:03;;;;;;;;;;;24.50;62.20;;;;;;5013016;28;19913;-65
2021/06/29 12:54:00;;;;;;;;;;;24.50;62.50;;;;;;4963633;28;21363;-65
2021/06/29 12:56:29;;;;;;;;;;;24.50;62.30;;;;;;4952663;28;20273;-64
2021/06/29 12:58:54;;;;;;;;;;;24.50;62.20;;;;;;4956268;28;20519;-65
2021/06/29 13:01:20;;;;;;;;;;;24.50;62.50;;;;;;4959589;28;20050;-65
2021/06/29 13:03:50;;;;;;;;;;;24.50;62.40;;;;;;4965161;28;19914;-64
2021/06/29 13:06:15;;;;;;;;;;;24.50;62.20;;;;;;4962233;28;20379;-64
2021/06/29 13:08:41;;;;;;;;;;;24.50;62.20;;;;;;4961122;28;19914;-64
2021/06/29 13:11:12;;;;;;;;;;;24.50;62.20;;;;;;4979371;28;19914;-64
2021/06/29 13:13:38;;;;;;;;;;;24.50;62.30;;;;;;4959095;28;20582;-64
2021/06/29 13:16:14;;;;;;;;;;;24.50;62.20;;;;;;4972660;28;19969;-64
2021/06/29 13:18:40;;;;;;;;;;;24.50;63.30;;;;;;4954398;28;19973;-64
2021/06/29 13:21:22;;;;;;;;;;;24.50;62.60;;;;;;4948897;28;19929;-64
2021/06/29 13:23:56;;;;;;;;;;;24.50;62.90;;;;;;4967697;28;20609;-63
2021/06/29 13:26:22;;;;;;;;;;;24.50;62.90;;;;;;4975963;28;20541;-64
2021/06/29 13:28:47;;;;;;;;;;;24.50;63.10;;;;;;4960898;28;19946;-64
2021/06/29 13:31:13;;;;;;;;;;;24.50;62.70;;;;;;4967536;28;19976;-64
2021/06/29 13:33:38;;;;;;;;;;;24.50;62.90;;;;;;4952530;28;19918;-64
2021/06/29 13:36:04;;;;;;;;;;;24.50;63.50;;;;;;4978783;28;19988;-64
2021/06/29 13:38:29;;;;;;;;;;;24.50;63.50;;;;;;4958494;28;19922;-62
2021/06/29 13:40:55;;;;;;;;;;;24.50;63.60;;;;;;4957564;28;20026;-64
2021/06/29 13:43:26;;;;;;;;;;;24.50;63.80;;;;;;4938923;28;20234;-64
2021/06/29 13:45:54;;;;;;;;;;;24.50;64.10;;;;;;4963971;28;19918;-64
2021/06/29 13:48:25;;;;;;;;;;;24.50;64.80;;;;;;4956275;28;19914;-63
2021/06/29 13:50:51;;;;;;;;;;;24.50;65.00;;;;;;4957579;28;20549;-65
2021/06/29 13:53:16;;;;;;;;;;;24.50;65.40;;;;;;4959387;28;19925;-65
2021/06/29 13:55:48;;;;;;;;;;;24.50;65.70;;;;;;4955621;28;20372;-64
2021/06/29 13:58:17;;;;;;;;;;;24.50;66.10;;;;;;4960695;28;19913;-64
2021/06/29 14:00:45;;;;;;;;;;;24.40;66.20;;;;;;4960669;28;20280;-64
2021/06/29 14:03:11;;;;;;;;;;;24.50;66.40;;;;;;4958237;28;19985;-63
2021/06/29 14:05:40;;;;;;;;;;;24.40;66.50;;;;;;4958617;28;20372;-63
2021/06/29 14:08:10;;;;;;;;;;;24.40;66.60;;;;;;4955916;28;19946;-63
2021/06/29 14:10:35;;;;;;;;;;;24.50;66.60;;;;;;4953099;28;19921;-63
2021/06/29 14:13:01;;;;;;;;;;;24.40;66.90;;;;;;4959058;28;20314;-64
2021/06/29 14:15:26;;;;;;;;;;;24.50;66.80;;;;;;4970477;28;19918;-64
2021/06/29 14:17:52;;;;;;;;;;;24.40;66.80;;;;;;4954068;28;20684;-64
2021/06/29 14:20:17;;;;;;;;;;;24.50;66.80;;;;;;4975496;28;19929;-63
2021/06/29 14:22:42;;;;;;;;;;;24.50;67.10;;;;;;4961145;28;19932;-64